Time;durP1;ratioP1;P1;durP2;ratioP2;P2;SDS_P1;SDS_P2;PMS_P1;PMS_P2;Temp;Humidity;BMP_temperature;BMP_pressure;BME280_temperature;BME280_humidity;BME280_pressure;Samples;Min_cycle;Max_cycle;Signal;HPM_P1;HPM_P2
2022/08/29 06:28:48;;;;;;;;;2.00;2.00;;;;;23.42;45.86;101483.25;5092187;27;45493;-73
2022/08/29 06:31:19;;;;;;;;;3.33;2.00;;;;;23.53;45.64;101494.88;5091791;27;45483;-73
2022/08/29 06:33:45;;;;;;;;;1.00;1.00;;;;;23.69;45.96;101478.81;5078300;27;45895;-74
2022/08/29 06:36:11;;;;;;;;;4.00;3.00;;;;;23.91;45.63;101492.94;5082044;27;45806;-72
2022/08/29 06:38:36;;;;;;;;;2.00;2.00;;;;;24.16;45.51;101485.09;5088574;27;46035;-73
2022/08/29 06:41:06;;;;;;;;;1.00;1.00;;;;;24.44;45.28;101493.13;5086272;27;45443;-73
2022/08/29 06:43:32;;;;;;;;;3.00;3.00;;;;;24.72;44.86;101501.16;5086186;27;45484;-73
2022/08/29 06:45:57;;;;;;;;;1.00;1.00;;;;;24.99;44.34;101493.91;5083859;27;45457;-74
2022/08/29 06:48:23;;;;;;;;;3.00;3.00;;;;;25.24;44.94;101495.91;5085445;27;45485;-76
2022/08/29 06:50:48;;;;;;;;;3.00;3.00;;;;;25.47;44.34;101489.91;5081042;27;45770;-74
2022/08/29 06:53:14;;;;;;;;;1.67;1.67;;;;;25.68;44.46;101485.91;5079816;27;45424;-75
2022/08/29 06:55:39;;;;;;;;;1.00;1.00;;;;;25.87;43.90;101482.91;5079621;27;45708;-76
2022/08/29 06:58:05;;;;;;;;;1.00;1.00;;;;;26.07;43.93;101485.31;5079127;27;46249;-74
2022/08/29 07:00:31;;;;;;;;;2.00;2.00;;;;;26.25;43.48;101487.09;5080637;27;45484;-74
2022/08/29 07:02:57;;;;;;;;;2.00;2.00;;;;;26.41;43.51;101497.13;5082490;27;46332;-74
2022/08/29 07:05:23;;;;;;;;;2.00;2.00;;;;;26.57;43.26;101497.09;5074113;27;45759;-75
2022/08/29 07:07:50;;;;;;;;;1.00;1.00;;;;;26.73;43.08;101502.72;5069381;27;46211;-74
2022/08/29 07:10:16;;;;;;;;;1.33;1.33;;;;;26.87;43.47;101506.59;5073819;27;45434;-75
2022/08/29 07:12:42;;;;;;;;;1.00;1.00;;;;;27.01;43.16;101488.75;5070567;27;45403;-75
2022/08/29 07:15:07;;;;;;;;;2.00;2.00;;;;;27.13;43.32;101498.25;5075653;27;45375;-75
2022/08/29 07:17:33;;;;;;;;;2.00;2.00;;;;;27.25;42.44;101498.72;5082964;27;46985;-74
2022/08/29 07:19:59;;;;;;;;;2.00;2.00;;;;;27.34;42.36;101497.66;5088122;27;45421;-74
2022/08/29 07:22:27;;;;;;;;;1.00;1.00;;;;;27.43;42.31;101500.34;5089878;27;45456;-75
2022/08/29 07:24:57;;;;;;;;;2.67;2.00;;;;;27.54;42.23;101504.56;5081171;27;45759;-75
2022/08/29 07:27:22;;;;;;;;;1.67;1.33;;;;;27.60;42.82;101493.84;5076702;27;45567;-75
2022/08/29 07:29:47;;;;;;;;;1.67;1.67;;;;;27.69;42.13;101494.63;5077956;27;45447;-75
2022/08/29 07:32:13;;;;;;;;;2.67;2.00;;;;;27.79;42.52;101496.28;5079064;27;45466;-74
2022/08/29 07:34:38;;;;;;;;;4.00;2.00;;;;;27.84;42.28;101491.97;5084422;27;45686;-75
2022/08/29 07:37:04;;;;;;;;;2.00;2.00;;;;;27.93;42.49;101486.47;5079468;27;45420;-75
2022/08/29 07:39:30;;;;;;;;;2.00;2.00;;;;;27.98;41.62;101495.81;5062009;27;45636;-74
2022/08/29 07:41:57;;;;;;;;;3.00;3.00;;;;;28.06;41.89;101499.50;5065162;27;45465;-74
2022/08/29 07:44:23;;;;;;;;;1.33;1.33;;;;;28.12;41.59;101505.09;5058539;27;45573;-74
2022/08/29 07:46:56;;;;;;;;;3.00;3.00;;;;;28.18;41.76;101502.69;5057109;27;45532;-74
2022/08/29 07:49:27;;;;;;;;;3.00;3.00;;;;;28.25;39.13;101495.50;5067178;28;45513;-73
2022/08/29 07:51:54;;;;;;;;;4.67;4.67;;;;;28.32;39.19;101493.72;5063777;27;45586;-72
2022/08/29 07:54:21;;;;;;;;;5.00;3.00;;;;;28.38;38.43;101503.94;5056830;27;45523;-72
2022/08/29 07:56:48;;;;;;;;;2.00;2.00;;;;;28.40;38.50;101499.13;5067604;27;45691;-74
2022/08/29 07:59:14;;;;;;;;;2.00;2.00;;;;;28.45;38.26;101492.28;5055108;27;45411;-72
2022/08/29 08:01:40;;;;;;;;;2.33;2.33;;;;;28.47;37.96;101488.31;5066128;27;45426;-72
2022/08/29 08:04:06;;;;;;;;;3.00;3.00;;;;;28.40;37.53;101485.47;5064946;27;45519;-72
2022/08/29 08:06:33;;;;;;;;;4.67;3.00;;;;;28.32;38.31;101490.16;5054718;27;45736;-72
2022/08/29 08:08:59;;;;;;;;;3.00;3.00;;;;;28.24;38.07;101493.78;5060606;27;45540;-72
2022/08/29 08:11:26;;;;;;;;;3.33;3.33;;;;;28.17;37.64;101499.13;5066422;27;45448;-72
2022/08/29 08:13:53;;;;;;;;;3.00;3.00;;;;;28.10;37.29;101490.81;5063046;28;45897;-71
2022/08/29 08:16:20;;;;;;;;;3.67;2.00;;;;;28.07;38.07;101495.78;5056539;27;47146;-72
2022/08/29 08:18:47;;;;;;;;;2.33;2.33;;;;;28.04;38.11;101479.75;5066286;27;45463;-72
2022/08/29 08:21:12;;;;;;;;;2.67;2.67;;;;;28.01;37.60;101486.44;5065751;27;46036;-72
2022/08/29 08:23:39;;;;;;;;;2.00;2.00;;;;;27.98;37.92;101486.78;5066444;27;45335;-72
2022/08/29 08:26:06;;;;;;;;;2.00;2.00;;;;;27.98;37.26;101484.06;5061932;27;46262;-72
2022/08/29 08:28:31;;;;;;;;;3.00;3.00;;;;;27.97;38.01;101483.22;5061337;28;45505;-72
2022/08/29 08:30:58;;;;;;;;;2.00;2.00;;;;;27.96;37.94;101484.22;5059801;27;45457;-75
2022/08/29 08:33:24;;;;;;;;;2.33;2.33;;;;;27.96;37.82;101486.97;5057842;27;45860;-73
2022/08/29 08:35:49;;;;;;;;;4.00;3.00;;;;;28.00;37.68;101504.66;5058779;27;47148;-73
2022/08/29 08:38:15;;;;;;;;;2.33;2.33;;;;;27.99;37.63;101491.19;5057937;27;45516;-73
2022/08/29 08:40:59;;;;;;;;;3.00;3.00;;;;;28.06;37.11;101494.06;5058322;28;45509;-73
2022/08/29 08:43:37;;;;;;;;;3.00;3.00;;;;;28.10;36.96;101498.13;5064875;27;46921;-74
2022/08/29 08:46:02;;;;;;;;;3.67;3.00;;;;;28.11;37.06;101497.94;5062081;27;46736;-74
2022/08/29 08:48:38;;;;;;;;;5.00;5.00;;;;;28.11;36.72;101487.03;5058688;27;45671;-74
2022/08/29 08:51:08;;;;;;;;;2.67;2.67;;;;;28.10;37.00;101493.53;5065184;28;45452;-74
2022/08/29 08:53:38;;;;;;;;;4.00;3.00;;;;;28.12;37.50;101493.34;5061100;27;45704;-74
2022/08/29 08:56:29;;;;;;;;;3.33;3.00;;;;;28.13;36.86;101497.78;5063077;27;46249;-73
2022/08/29 08:59:04;;;;;;;;;4.00;4.00;;;;;28.13;37.09;101492.31;5060278;27;45386;-73
2022/08/29 09:01:42;;;;;;;;;4.00;4.00;;;;;28.14;37.21;101488.56;5058216;27;45491;-73
2022/08/29 09:04:25;;;;;;;;;4.00;4.00;;;;;28.20;37.29;101492.44;5060358;28;46542;-73
2022/08/29 09:07:16;;;;;;;;;3.67;3.67;;;;;28.22;37.36;101493.09;5061432;27;45465;-74
2022/08/29 09:10:09;;;;;;;;;3.33;3.33;;;;;28.26;36.57;101491.72;5060172;28;45596;-74
2022/08/29 09:12:50;;;;;;;;;3.00;3.00;;;;;28.33;37.16;101486.41;5058698;27;45450;-74
2022/08/29 09:15:19;;;;;;;;;4.00;3.00;;;;;28.36;37.07;101481.41;5064021;27;45675;-73
2022/08/29 09:17:59;;;;;;;;;4.67;4.00;;;;;28.40;36.38;101482.75;5062659;27;47058;-75
2022/08/29 09:20:29;;;;;;;;;4.00;2.67;;;;;28.44;36.82;101483.22;5060771;27;45591;-73
2022/08/29 09:23:10;;;;;;;;;4.00;3.33;;;;;28.51;36.86;101489.66;5072387;28;45837;-74
2022/08/29 09:25:35;;;;;;;;;2.67;2.67;;;;;28.53;36.14;101486.75;5065898;28;45472;-74
2022/08/29 09:28:05;;;;;;;;;4.00;2.67;;;;;28.52;36.42;101488.63;5066546;27;46211;-75
2022/08/29 09:30:32;;;;;;;;;4.67;4.67;;;;;28.55;36.12;101484.66;5056624;27;45497;-75
2022/08/29 09:33:07;;;;;;;;;4.67;4.00;;;;;28.61;36.42;101483.09;5058118;27;45368;-72
2022/08/29 09:35:41;;;;;;;;;5.33;5.00;;;;;28.63;36.10;101491.94;5057747;27;45525;-73
2022/08/29 09:38:24;;;;;;;;;5.00;5.00;;;;;28.65;36.74;101479.78;5056607;27;46090;-73
2022/08/29 09:40:54;;;;;;;;;3.33;3.33;;;;;28.67;36.61;101482.34;5058368;28;45391;-73
2022/08/29 09:43:37;;;;;;;;;5.00;3.33;;;;;28.65;36.74;101471.59;5052589;28;45381;-73
2022/08/29 09:46:17;;;;;;;;;5.00;4.00;;;;;28.65;36.60;101476.22;5065817;27;47064;-72
2022/08/29 09:48:56;;;;;;;;;3.00;3.00;;;;;28.62;36.54;101468.38;5055986;27;46158;-73
2022/08/29 09:51:29;;;;;;;;;5.00;4.67;;;;;28.61;36.29;101477.63;5063984;27;45633;-73
2022/08/29 09:54:27;;;;;;;;;6.67;4.33;;;;;28.57;36.33;101482.59;5065443;27;45761;-72
2022/08/29 09:57:00;;;;;;;;;5.00;5.00;;;;;28.56;36.88;101477.34;5059234;27;45382;-73
2022/08/29 09:59:36;;;;;;;;;6.67;6.67;;;;;28.55;36.57;101479.19;5064462;27;45771;-73
2022/08/29 10:02:22;;;;;;;;;4.00;4.00;;;;;28.58;36.84;101480.72;5062653;27;45318;-73
2022/08/29 10:04:54;;;;;;;;;7.00;5.33;;;;;28.60;36.53;101481.41;5065556;27;45501;-73
2022/08/29 10:07:50;;;;;;;;;3.33;3.33;;;;;28.62;36.16;101480.19;5066980;28;45561;-72
2022/08/29 10:10:25;;;;;;;;;4.00;4.00;;;;;28.65;36.09;101476.22;5063269;27;46129;-73
2022/08/29 10:13:18;;;;;;;;;4.00;4.00;;;;;28.69;36.12;101468.50;5064752;27;45553;-73
2022/08/29 10:15:51;;;;;;;;;8.00;6.67;;;;;28.67;36.04;101464.06;5063724;27;45480;-73
2022/08/29 10:18:20;;;;;;;;;5.00;5.00;;;;;28.66;36.31;101470.53;5064722;28;46321;-73
2022/08/29 10:20:51;;;;;;;;;6.00;4.00;;;;;28.67;36.20;101471.41;5055170;28;45520;-72
2022/08/29 10:23:42;;;;;;;;;4.67;4.33;;;;;28.69;36.63;101463.88;5055485;28;45476;-74
2022/08/29 10:26:15;;;;;;;;;5.00;3.33;;;;;28.76;36.43;101463.97;5049470;28;45593;-73
2022/08/29 10:28:53;;;;;;;;;5.67;5.67;;;;;28.83;36.11;101466.81;5046715;28;45810;-73
2022/08/29 10:31:47;;;;;;;;;5.00;5.00;;;;;28.89;35.78;101460.66;5048459;28;46118;-73
2022/08/29 10:34:41;;;;;;;;;4.00;3.67;;;;;28.91;35.96;101459.41;5048358;28;45525;-72
2022/08/29 10:37:22;;;;;;;;;4.67;4.67;;;;;28.95;35.92;101459.03;5045289;28;45684;-72
2022/08/29 10:39:59;;;;;;;;;4.67;4.67;;;;;28.97;35.77;101455.06;5047999;28;45500;-72
2022/08/29 10:42:25;;;;;;;;;6.33;5.33;;;;;29.01;35.89;101452.81;5048032;28;46279;-72
2022/08/29 10:45:33;;;;;;;;;6.00;6.00;;;;;29.06;35.83;101459.41;5048395;28;45621;-73
2022/08/29 10:48:09;;;;;;;;;7.00;6.67;;;;;29.10;35.85;101446.19;5047928;28;45589;-75
2022/08/29 10:50:50;;;;;;;;;5.33;5.33;;;;;29.14;35.85;101433.03;5049149;28;45602;-74
2022/08/29 10:53:21;;;;;;;;;4.67;4.67;;;;;29.16;35.79;101437.25;5048945;28;45396;-74
2022/08/29 10:55:59;;;;;;;;;6.00;5.67;;;;;29.21;35.51;101433.94;5049173;28;45873;-75
2022/08/29 10:58:43;;;;;;;;;6.67;6.67;;;;;29.23;35.52;101437.34;5042448;28;45871;-75
2022/08/29 11:01:41;;;;;;;;;7.00;5.33;;;;;29.24;35.83;101443.63;5043158;28;45752;-74
2022/08/29 11:04:25;;;;;;;;;5.00;5.00;;;;;29.28;35.86;101451.28;5049903;28;45564;-74
2022/08/29 11:07:37;;;;;;;;;5.33;5.33;;;;;29.30;35.99;101442.91;5058428;28;45459;-75
2022/08/29 11:10:11;;;;;;;;;6.00;5.67;;;;;29.30;35.50;101440.16;5058810;27;45695;-74
2022/08/29 11:12:59;;;;;;;;;5.00;4.67;;;;;29.25;35.71;101432.53;5070849;27;45398;-74
2022/08/29 11:15:37;;;;;;;;;5.00;5.00;;;;;29.29;35.19;101431.09;5063633;27;46160;-74
2022/08/29 11:18:18;;;;;;;;;7.67;7.00;;;;;29.29;35.30;101436.56;5060854;27;45935;-74
2022/08/29 11:20:50;;;;;;;;;5.00;5.00;;;;;29.30;35.89;101434.69;5060615;27;45596;-74
2022/08/29 11:23:34;;;;;;;;;5.67;5.00;;;;;29.29;35.84;101432.97;5057547;27;45368;-74
2022/08/29 11:26:11;;;;;;;;;8.67;8.67;;;;;29.26;35.76;101427.91;5057083;27;45801;-74
2022/08/29 11:28:50;;;;;;;;;4.00;4.00;;;;;29.27;35.94;101430.47;5061267;28;45532;-74
2022/08/29 11:31:45;;;;;;;;;4.67;3.67;;;;;29.28;35.30;101429.41;5063002;27;45439;-74
2022/08/29 11:34:16;;;;;;;;;6.00;6.00;;;;;29.32;36.10;101413.47;5064790;27;45519;-74
2022/08/29 11:37:04;;;;;;;;;6.33;6.33;;;;;29.38;36.09;101423.63;5075879;27;47217;-74
2022/08/29 11:39:45;;;;;;;;;8.33;7.00;;;;;29.42;36.02;101421.38;5060183;27;45365;-75
2022/08/29 11:42:15;;;;;;;;;7.00;7.00;;;;;29.46;35.46;101426.25;5058058;27;45974;-75
2022/08/29 11:44:47;;;;;;;;;10.00;9.00;;;;;29.50;36.90;101412.22;5060211;27;45717;-74
2022/08/29 11:47:46;;;;;;;;;8.33;7.00;;;;;29.54;37.01;101408.91;5060024;27;46222;-74
2022/08/29 11:50:14;;;;;;;;;8.00;8.00;;;;;29.58;36.98;101414.84;5055214;27;45868;-72
2022/08/29 11:52:58;;;;;;;;;6.67;6.67;;;;;29.57;37.28;101419.47;5060852;27;46634;-73
2022/08/29 11:55:44;;;;;;;;;6.33;5.00;;;;;29.57;36.91;101403.06;5064516;27;45428;-73
2022/08/29 11:58:13;;;;;;;;;9.33;9.00;;;;;29.58;36.96;101406.63;5059486;27;46517;-74
2022/08/29 12:00:50;;;;;;;;;8.33;8.33;;;;;29.59;36.99;101413.81;5071289;27;45626;-74
2022/08/29 12:03:33;;;;;;;;;7.00;7.00;;;;;29.57;36.96;101405.81;5072245;27;45435;-73
2022/08/29 12:06:33;;;;;;;;;7.33;6.33;;;;;29.55;36.39;101399.66;5075300;27;45382;-73
2022/08/29 12:09:03;;;;;;;;;9.00;9.00;;;;;29.55;36.92;101396.09;5069145;27;45636;-73
2022/08/29 12:11:59;;;;;;;;;8.33;7.33;;;;;29.55;36.91;101398.84;5055316;27;45433;-73
2022/08/29 12:14:34;;;;;;;;;8.33;7.67;;;;;29.52;36.69;101394.59;5064674;27;47079;-72
2022/08/29 12:17:02;;;;;;;;;7.67;7.67;;;;;29.47;37.21;101394.31;5069544;27;46044;-72
2022/08/29 12:20:06;;;;;;;;;7.00;7.00;;;;;29.43;37.06;101385.63;5064555;27;47119;-72
2022/08/29 12:22:50;;;;;;;;;5.67;5.67;;;;;29.38;37.21;101392.72;5021457;28;45466;-72
2022/08/29 12:25:43;;;;;;;;;6.67;6.67;;;;;29.36;37.30;101378.38;5031793;28;45468;-74
2022/08/29 12:28:16;;;;;;;;;10.33;6.33;;;;;29.31;37.96;101385.28;5024797;28;45586;-74
2022/08/29 12:30:45;;;;;;;;;10.00;9.67;;;;;29.28;37.74;101373.88;5030639;28;45769;-73
2022/08/29 12:33:48;;;;;;;;;9.33;8.33;;;;;29.30;38.08;101377.28;5031270;28;45463;-73
2022/08/29 12:36:25;;;;;;;;;7.33;7.33;;;;;29.31;38.05;101379.81;5040680;28;45424;-74
2022/08/29 12:39:02;;;;;;;;;6.00;4.67;;;;;29.34;38.85;101373.09;5010095;28;45563;-74
2022/08/29 12:42:02;;;;;;;;;6.67;6.67;;;;;29.32;39.13;101362.38;5026709;28;46262;-74
2022/08/29 12:44:35;;;;;;;;;7.33;7.00;;;;;29.38;39.54;101371.69;5021670;28;45553;-75
2022/08/29 12:47:12;;;;;;;;;7.00;7.00;;;;;29.42;39.32;101366.69;5023805;28;45514;-75
2022/08/29 12:49:51;;;;;;;;;8.33;8.33;;;;;29.44;39.98;101368.19;5027219;28;45603;-75
2022/08/29 12:52:24;;;;;;;;;8.33;7.00;;;;;29.48;40.27;101363.19;5027761;28;46016;-74
2022/08/29 12:54:50;;;;;;;;;5.33;5.00;;;;;29.51;39.99;101357.34;5031077;28;45535;-74
2022/08/29 12:57:22;;;;;;;;;5.67;5.67;;;;;29.54;40.08;101350.63;5061067;27;45799;-75
2022/08/29 12:59:52;;;;;;;;;6.33;6.33;;;;;29.57;40.05;101344.78;5066131;27;45351;-74
2022/08/29 13:02:31;;;;;;;;;8.00;8.00;;;;;29.61;40.05;101342.50;5071020;28;45442;-75
2022/08/29 13:04:58;;;;;;;;;6.33;6.00;;;;;29.63;40.27;101345.91;5063474;27;45394;-74
2022/08/29 13:07:25;;;;;;;;;7.00;7.00;;;;;29.65;40.27;101343.78;5066976;27;46218;-75
2022/08/29 13:09:53;;;;;;;;;8.33;8.00;;;;;29.66;41.11;101329.94;5059575;27;45548;-74
2022/08/29 13:12:30;;;;;;;;;7.00;7.00;;;;;29.69;40.94;101331.44;5058867;28;46505;-74
2022/08/29 13:14:55;;;;;;;;;9.33;7.67;;;;;29.72;41.23;101339.25;5067183;27;45517;-74
2022/08/29 13:17:25;;;;;;;;;7.00;5.33;;;;;29.73;41.32;101332.72;5075451;27;45465;-72
2022/08/29 13:20:28;;;;;;;;;6.67;6.67;;;;;29.76;40.89;101332.34;5072865;28;45386;-72
2022/08/29 13:23:10;;;;;;;;;7.00;7.00;;;;;29.78;41.24;101323.91;5070158;28;45337;-72
2022/08/29 13:26:08;;;;;;;;;7.00;7.00;;;;;29.78;41.62;101312.97;5072807;28;45381;-72
2022/08/29 13:28:54;;;;;;;;;6.67;6.67;;;;;29.70;39.81;101306.63;5051830;28;45475;-73
2022/08/29 13:31:21;;;;;;;;;9.00;9.00;;;;;29.42;39.72;101306.56;5049202;28;45538;-72
2022/08/29 13:33:49;;;;;;;;;7.67;7.67;;;;;29.18;39.91;101305.88;5049430;28;45522;-72
2022/08/29 13:36:26;;;;;;;;;7.00;7.00;;;;;28.97;39.88;101307.53;5048764;28;45486;-72
2022/08/29 13:39:16;;;;;;;;;7.00;7.00;;;;;28.83;40.12;101301.03;5050595;28;45883;-72
2022/08/29 13:41:45;;;;;;;;;8.33;8.33;;;;;28.73;39.83;101297.75;5037225;28;45758;-72
2022/08/29 13:44:18;;;;;;;;;7.33;7.33;;;;;28.63;39.73;101300.75;5040547;28;46972;-72
2022/08/29 13:46:46;;;;;;;;;8.00;8.00;;;;;28.56;40.61;101303.41;5046710;28;45392;-72
2022/08/29 13:49:21;;;;;;;;;9.33;7.67;;;;;28.51;40.67;101300.41;5050502;28;45647;-72
2022/08/29 13:51:47;;;;;;;;;7.00;7.00;;;;;28.45;39.85;101287.50;5043048;28;45594;-73
2022/08/29 13:54:13;;;;;;;;;7.33;7.33;;;;;28.37;40.57;101288.47;5040905;28;46055;-72
2022/08/29 13:56:39;;;;;;;;;6.67;6.67;;;;;28.30;40.72;101291.09;5050281;28;45405;-72
2022/08/29 13:59:05;;;;;;;;;10.00;7.00;;;;;28.24;40.56;101287.22;5044315;28;45585;-72
2022/08/29 14:01:30;;;;;;;;;8.67;8.67;;;;;28.18;40.58;101287.09;5051549;28;45459;-72
2022/08/29 14:03:55;;;;;;;;;7.33;7.33;;;;;28.18;41.00;101289.81;5049766;28;47387;-73
2022/08/29 14:06:23;;;;;;;;;7.67;7.67;;;;;28.15;40.96;101291.03;5057909;28;45938;-72
2022/08/29 14:08:49;;;;;;;;;5.00;5.00;;;;;28.12;40.50;101277.78;5062872;28;45653;-73
2022/08/29 14:11:15;;;;;;;;;6.33;6.00;;;;;28.06;40.55;101276.66;5058439;27;45417;-73
2022/08/29 14:13:41;;;;;;;;;9.00;8.00;;;;;28.04;40.98;101272.41;5064290;28;46045;-76
2022/08/29 14:16:06;;;;;;;;;9.33;8.67;;;;;28.00;41.50;101266.47;5073889;27;45368;-75
2022/08/29 14:18:31;;;;;;;;;9.33;8.00;;;;;27.96;41.44;101276.06;5069601;27;45896;-72
2022/08/29 14:20:57;;;;;;;;;8.33;8.33;;;;;27.94;41.04;101269.94;5069863;27;45464;-72
2022/08/29 14:23:22;;;;;;;;;7.00;7.00;;;;;27.94;41.19;101275.38;5062455;28;58088;-71
2022/08/29 14:25:48;;;;;;;;;8.67;8.33;;;;;27.92;41.49;101269.28;5065612;28;45412;-71
2022/08/29 14:28:13;;;;;;;;;10.33;7.67;;;;;27.94;41.05;101270.78;5068976;28;45450;-70
2022/08/29 14:30:39;;;;;;;;;8.33;8.00;;;;;27.95;41.54;101271.66;5063822;28;45398;-71
2022/08/29 14:33:04;;;;;;;;;10.33;8.33;;;;;27.96;41.40;101278.78;5064204;28;45394;-72
2022/08/29 14:35:29;;;;;;;;;10.00;7.33;;;;;27.95;41.06;101269.75;5059572;27;45579;-73
2022/08/29 14:37:55;;;;;;;;;6.67;6.00;;;;;27.96;41.68;101268.72;5070431;27;45446;-71
2022/08/29 14:40:22;;;;;;;;;9.33;9.00;;;;;27.97;41.63;101264.13;5069673;28;45683;-72
2022/08/29 14:42:47;;;;;;;;;11.00;9.00;;;;;27.96;41.06;101262.44;5068423;27;46387;-71
2022/08/29 14:45:13;;;;;;;;;12.33;8.67;;;;;27.95;40.98;101261.56;5072679;28;45533;-71
2022/08/29 14:47:39;;;;;;;;;6.67;6.67;;;;;27.94;41.26;101267.22;5072480;27;45790;-72
2022/08/29 14:50:06;;;;;;;;;7.00;6.33;;;;;27.94;40.98;101261.75;5071561;27;45502;-71
2022/08/29 14:52:32;;;;;;;;;7.00;7.00;;;;;27.90;40.98;101261.28;5073449;27;46049;-71
2022/08/29 14:54:58;;;;;;;;;8.00;8.00;;;;;27.91;41.13;101253.97;5071584;28;45496;-71
2022/08/29 14:57:23;;;;;;;;;11.33;9.00;;;;;27.93;41.82;101257.34;5068572;27;45435;-71
2022/08/29 14:59:49;;;;;;;;;8.00;8.00;;;;;27.94;41.11;101254.44;5071732;27;45530;-70
2022/08/29 15:02:15;;;;;;;;;8.00;7.67;;;;;27.92;41.11;101253.78;5075416;27;46392;-71
2022/08/29 15:04:40;;;;;;;;;10.33;9.67;;;;;27.89;41.82;101243.22;5074072;27;45446;-72
2022/08/29 15:07:09;;;;;;;;;9.00;8.00;;;;;27.89;41.81;101243.22;5071284;27;45607;-71
2022/08/29 15:09:35;;;;;;;;;9.00;9.00;;;;;27.88;41.85;101247.81;5070209;27;45451;-71
2022/08/29 15:12:01;;;;;;;;;11.00;9.67;;;;;27.90;41.62;101244.09;5072600;27;45692;-71
2022/08/29 15:14:26;;;;;;;;;9.33;9.33;;;;;27.91;41.80;101251.22;5074708;27;45520;-71
2022/08/29 15:16:51;;;;;;;;;8.00;8.00;;;;;27.92;41.98;101242.00;5074694;27;46990;-73
2022/08/29 15:19:17;;;;;;;;;10.00;10.00;;;;;27.92;42.10;101239.28;5075733;27;45521;-72
2022/08/29 15:21:42;;;;;;;;;8.33;8.33;;;;;27.92;42.09;101231.97;5075975;27;45406;-72
2022/08/29 15:24:07;;;;;;;;;9.33;8.33;;;;;27.94;42.08;101226.28;5067617;27;51499;-73
2022/08/29 15:26:33;;;;;;;;;8.67;8.00;;;;;27.95;42.06;101226.09;5067332;27;45836;-72
2022/08/29 15:28:58;;;;;;;;;7.67;7.67;;;;;27.99;41.71;101229.31;5073256;27;45497;-71
2022/08/29 15:31:23;;;;;;;;;7.00;7.00;;;;;27.98;41.36;101233.94;5073367;27;45921;-72
2022/08/29 15:33:49;;;;;;;;;7.67;6.00;;;;;27.98;42.15;101233.94;5067787;27;45332;-73
2022/08/29 15:36:14;;;;;;;;;8.67;8.67;;;;;28.00;41.84;101234.56;5071934;27;45407;-72
2022/08/29 15:38:39;;;;;;;;;8.67;7.67;;;;;28.02;42.38;101237.97;5074747;27;45520;-71
2022/08/29 15:41:05;;;;;;;;;8.67;7.67;;;;;28.03;41.78;101244.25;5072470;27;45318;-71
2022/08/29 15:43:30;;;;;;;;;8.67;8.67;;;;;28.04;42.33;101240.53;5070416;27;45470;-73
2022/08/29 15:45:55;;;;;;;;;8.00;8.00;;;;;28.05;42.71;101238.63;5074965;27;45550;-71
2022/08/29 15:48:21;;;;;;;;;7.00;7.00;;;;;28.05;42.94;101234.03;5067388;27;45375;-73
2022/08/29 15:50:46;;;;;;;;;9.67;8.33;;;;;28.15;43.18;101233.72;5066051;27;45432;-73
2022/08/29 15:53:11;;;;;;;;;8.33;8.33;;;;;28.30;42.17;101217.41;5073692;27;45382;-73
2022/08/29 15:55:37;;;;;;;;;9.00;9.00;;;;;28.52;42.19;101226.50;5070797;27;45730;-72
2022/08/29 15:58:02;;;;;;;;;8.67;8.67;;;;;28.70;41.82;101225.25;5066239;27;45624;-72
2022/08/29 16:00:28;;;;;;;;;9.67;9.00;;;;;28.86;41.60;101223.31;5061246;27;46094;-72
2022/08/29 16:02:54;;;;;;;;;8.67;8.00;;;;;28.98;41.16;101221.78;5067222;28;45410;-72
2022/08/29 16:05:19;;;;;;;;;8.00;8.00;;;;;29.10;41.51;101222.09;5062809;27;45696;-72
2022/08/29 16:07:45;;;;;;;;;8.00;7.67;;;;;29.21;40.88;101217.19;5067244;28;45567;-72
2022/08/29 16:10:11;;;;;;;;;7.67;7.67;;;;;29.28;40.46;101221.66;5055394;27;45486;-72
2022/08/29 16:12:36;;;;;;;;;8.33;8.00;;;;;29.35;40.37;101213.53;5055140;28;45469;-72
2022/08/29 16:15:04;;;;;;;;;7.67;6.67;;;;;29.41;40.11;101211.88;5072732;28;45448;-72
2022/08/29 16:17:30;;;;;;;;;8.67;7.67;;;;;29.48;40.34;101212.78;5074245;27;45454;-72
2022/08/29 16:19:56;;;;;;;;;7.67;7.67;;;;;29.52;40.03;101211.38;5071187;28;46465;-72
2022/08/29 16:22:22;;;;;;;;;11.33;7.33;;;;;29.56;39.73;101217.28;5072245;27;45441;-72
2022/08/29 16:24:47;;;;;;;;;8.33;6.67;;;;;29.58;39.58;101220.66;5072534;27;45481;-72
2022/08/29 16:27:13;;;;;;;;;13.00;10.67;;;;;29.59;39.71;101215.00;5071071;27;45359;-72
2022/08/29 16:29:38;;;;;;;;;9.33;9.00;;;;;29.60;39.99;101210.38;5065211;28;46180;-73
2022/08/29 16:32:04;;;;;;;;;7.00;7.00;;;;;29.53;39.69;101213.06;5063061;27;45578;-72
2022/08/29 16:34:30;;;;;;;;;9.33;9.00;;;;;29.27;40.63;101210.91;5050658;27;45892;-72
2022/08/29 16:36:59;;;;;;;;;11.67;8.67;;;;;29.10;41.34;101207.63;5058053;27;45635;-72
2022/08/29 16:39:26;;;;;;;;;12.00;11.00;;;;;29.00;41.89;101208.78;5054915;27;45383;-72
2022/08/29 16:41:52;;;;;;;;;10.33;9.67;;;;;28.90;42.44;101211.81;5055946;28;45320;-71
2022/08/29 16:44:18;;;;;;;;;10.00;9.00;;;;;28.79;41.58;101213.16;5057904;28;45371;-72
2022/08/29 16:46:43;;;;;;;;;12.00;8.33;;;;;28.67;42.00;101215.56;5057152;27;45700;-74
2022/08/29 16:49:09;;;;;;;;;11.00;9.67;;;;;28.59;41.71;101220.25;5059685;28;46306;-72
2022/08/29 16:51:34;;;;;;;;;14.33;11.33;;;;;28.56;41.93;101218.75;5068606;28;51952;-73
2022/08/29 16:53:59;;;;;;;;;10.00;9.00;;;;;28.57;41.88;101214.97;5075865;27;45368;-73
2022/08/29 16:56:26;;;;;;;;;10.00;8.33;;;;;28.53;41.95;101206.34;5073471;27;45374;-73
2022/08/29 16:59:03;;;;;;;;;8.67;7.67;;;;;28.51;42.57;101196.66;5073084;27;47248;-73
2022/08/29 17:01:35;;;;;;;;;9.33;8.00;;;;;28.41;42.37;101199.69;5075637;27;45411;-73
2022/08/29 17:04:03;;;;;;;;;10.00;10.00;;;;;28.37;42.25;101195.66;5068999;28;45447;-73
2022/08/29 17:06:29;;;;;;;;;9.00;9.00;;;;;28.31;42.49;101196.41;5071496;27;45576;-73
2022/08/29 18:49:18;;;;;;;;;6.33;6.33;;;;;25.90;46.35;101243.28;5091262;27;45847;-72
2022/08/29 18:51:43;;;;;;;;;10.33;10.00;;;;;25.98;46.19;101238.84;5110051;27;46687;-74
2022/08/29 18:54:09;;;;;;;;;11.33;10.00;;;;;26.14;46.56;101246.09;5111593;27;45462;-74
2022/08/29 18:56:35;;;;;;;;;12.67;10.67;;;;;26.30;46.54;101246.09;5108653;27;45475;-74
2022/08/29 18:59:00;;;;;;;;;9.00;7.33;;;;;26.53;46.47;101249.94;5109246;27;46299;-74
2022/08/29 19:01:28;;;;;;;;;8.67;8.67;;;;;26.68;46.58;101250.00;5106995;27;45508;-74
2022/08/29 19:04:01;;;;;;;;;8.67;8.67;;;;;26.76;46.55;101252.72;5110044;27;45498;-74
2022/08/29 19:06:27;;;;;;;;;10.00;10.00;;;;;26.84;46.39;101249.09;5108767;27;45355;-74
2022/08/29 19:08:53;;;;;;;;;11.00;9.00;;;;;26.92;46.20;101256.34;5101715;27;47216;-74
2022/08/29 19:11:19;;;;;;;;;11.00;11.00;;;;;26.98;46.05;101252.97;5109649;27;45465;-74
2022/08/29 19:13:45;;;;;;;;;10.00;10.00;;;;;27.05;45.43;101259.38;5099528;27;45378;-74
2022/08/29 19:16:11;;;;;;;;;11.33;9.00;;;;;27.08;45.91;101255.44;5103220;27;45398;-74
2022/08/29 19:18:37;;;;;;;;;12.00;8.67;;;;;27.15;45.31;101258.31;5109973;27;46283;-76
2022/08/29 19:21:06;;;;;;;;;10.67;10.33;;;;;27.28;44.82;101265.88;5111573;27;45981;-76
